Time;durP1;ratioP1;P1;durP2;ratioP2;P2;SDS_P1;SDS_P2;PMS_P1;PMS_P2;Temp;Humidity;BMP_temperature;BMP_pressure;BME280_temperature;BME280_humidity;BME280_pressure;Samples;Min_cycle;Max_cycle;Signal;HPM_P1;HPM_P2
2022/05/11 00:00:52;;;;;;;24.98;10.55;;;10.40;72.30;;;;;;4120770;28;20027;-84
2022/05/11 00:02:52;;;;;;;23.40;10.27;;;10.40;72.60;;;;;;4123229;28;20488;-84
2022/05/11 00:04:53;;;;;;;30.42;10.65;;;10.40;72.80;;;;;;4124078;28;20126;-84
2022/05/11 00:06:54;;;;;;;25.10;10.55;;;10.40;72.80;;;;;;4123415;28;20030;-84
2022/05/11 00:08:56;;;;;;;30.52;11.27;;;10.40;72.90;;;;;;4108743;28;20038;-83
2022/05/11 00:10:57;;;;;;;24.67;10.77;;;10.40;73.30;;;;;;4119720;28;20416;-84
2022/05/11 00:12:58;;;;;;;31.65;11.20;;;10.40;73.20;;;;;;4143014;28;20041;-84
2022/05/11 00:14:59;;;;;;;28.20;11.07;;;10.40;73.40;;;;;;4110735;28;20129;-84
2022/05/11 00:17:00;;;;;;;31.73;11.00;;;10.40;73.50;;;;;;4120983;28;20769;-84
2022/05/11 00:19:01;;;;;;;27.17;11.20;;;10.40;74.40;;;;;;4134282;28;20458;-84
2022/05/11 00:21:02;;;;;;;28.00;10.48;;;10.40;73.70;;;;;;4120055;28;20037;-84
2022/05/11 00:23:03;;;;;;;30.80;11.48;;;10.50;74.70;;;;;;4119934;28;20026;-83
2022/05/11 00:25:06;;;;;;;23.88;10.02;;;10.40;74.00;;;;;;4124482;28;20033;-84
2022/05/11 00:27:06;;;;;;;27.33;10.63;;;10.50;73.90;;;;;;4118239;28;20499;-85
2022/05/11 00:29:07;;;;;;;21.92;10.10;;;10.40;74.10;;;;;;4137084;28;20101;-83
2022/05/11 00:31:09;;;;;;;23.05;10.20;;;10.50;74.10;;;;;;4119119;28;20473;-84
2022/05/11 00:33:13;;;;;;;25.00;11.35;;;10.50;74.20;;;;;;4122114;28;20038;-83
2022/05/11 00:35:14;;;;;;;35.85;11.18;;;10.50;74.40;;;;;;4137193;28;20026;-83
2022/05/11 00:37:14;;;;;;;31.45;11.13;;;10.50;74.40;;;;;;4140578;28;20056;-84
2022/05/11 00:39:15;;;;;;;26.48;10.45;;;10.50;74.40;;;;;;4122019;28;20030;-83
2022/05/11 00:41:15;;;;;;;32.53;11.63;;;10.50;74.40;;;;;;4136516;28;20606;-84
2022/05/11 00:43:34;;;;;;;34.75;11.02;;;10.50;74.60;;;;;;4119824;28;20031;-84
2022/05/11 00:45:38;;;;;;;31.88;11.02;;;10.50;74.80;;;;;;4121592;28;20026;-84
2022/05/11 00:47:51;;;;;;;27.90;10.40;;;10.50;74.50;;;;;;4123978;28;20061;-83
2022/05/11 00:50:04;;;;;;;30.27;11.63;;;10.50;74.70;;;;;;4119115;28;20031;-84
2022/05/11 00:52:12;;;;;;;28.67;10.60;;;10.50;74.70;;;;;;4119453;28;20113;-84
2022/05/11 00:54:15;;;;;;;31.80;10.85;;;10.50;74.50;;;;;;4133800;28;20484;-84
2022/05/11 00:56:16;;;;;;;29.10;10.48;;;10.50;74.60;;;;;;4120757;28;20053;-84
2022/05/11 00:58:51;;;;;;;22.08;9.98;;;10.50;74.70;;;;;;4120464;28;20029;-84
2022/05/11 01:00:52;;;;;;;25.70;10.68;;;10.50;74.70;;;;;;4119683;28;20416;-84
2022/05/11 01:03:00;;;;;;;24.33;10.30;;;10.50;74.60;;;;;;4120689;28;20034;-85
2022/05/11 01:05:04;;;;;;;25.33;9.93;;;10.50;74.70;;;;;;4122821;28;20455;-84
2022/05/11 01:07:08;;;;;;;20.80;9.43;;;10.50;74.80;;;;;;4118181;28;20369;-84
2022/05/11 01:09:10;;;;;;;23.60;9.68;;;10.50;74.80;;;;;;4125808;28;20057;-84
2022/05/11 01:11:11;;;;;;;23.05;10.00;;;10.50;75.60;;;;;;4121840;28;20034;-85
2022/05/11 01:13:14;;;;;;;26.58;10.60;;;10.50;74.90;;;;;;4138650;28;20199;-83
2022/05/11 01:15:18;;;;;;;24.85;10.20;;;10.50;75.00;;;;;;4122474;28;20156;-84
2022/05/11 01:17:19;;;;;;;;;;;10.50;75.00;;;;;;4120499;28;20042;-83
2022/05/11 01:19:28;;;;;;;33.08;10.68;;;10.50;76.00;;;;;;4123053;28;19909;-84
2022/05/11 01:21:57;;;;;;;26.83;10.60;;;10.50;74.90;;;;;;4120313;28;20027;-84
2022/05/11 01:24:07;;;;;;;29.42;11.18;;;10.50;74.90;;;;;;4104445;28;20470;-84
2022/05/11 01:26:08;;;;;;;25.77;10.77;;;10.50;75.00;;;;;;4102063;28;20620;-84
2022/05/11 01:28:12;;;;;;;21.98;10.57;;;10.50;75.00;;;;;;4105676;28;20038;-84
2022/05/11 01:30:18;;;;;;;27.33;11.77;;;10.50;75.10;;;;;;4100974;28;20030;-84
2022/05/11 01:32:20;;;;;;;31.33;12.65;;;10.50;75.20;;;;;;4103758;28;20049;-84
2022/05/11 01:34:24;;;;;;;26.13;10.07;;;10.40;75.30;;;;;;4103188;28;20037;-84
2022/05/11 01:36:31;;;;;;;28.60;11.30;;;10.40;75.30;;;;;;4087174;28;20038;-84
2022/05/11 01:38:44;;;;;;;28.02;11.40;;;10.40;75.30;;;;;;4101524;28;20050;-84
2022/05/11 01:40:44;;;;;;;26.35;10.52;;;10.50;75.40;;;;;;4100601;28;20076;-83
2022/05/11 01:42:49;;;;;;;36.85;11.75;;;10.40;75.40;;;;;;4085666;28;20043;-84
2022/05/11 01:44:49;;;;;;;26.80;11.73;;;10.50;75.50;;;;;;4092846;28;20031;-84
2022/05/11 01:46:53;;;;;;;28.10;11.60;;;10.50;75.50;;;;;;4106719;28;20109;-84
2022/05/11 01:48:54;;;;;;;35.97;11.93;;;10.40;75.50;;;;;;4099937;28;20540;-84
2022/05/11 01:50:55;;;;;;;28.90;12.15;;;10.50;75.60;;;;;;4087462;28;20521;-84
2022/05/11 01:52:55;;;;;;;25.58;11.77;;;10.50;75.90;;;;;;4088049;28;20053;-84
2022/05/11 01:54:56;;;;;;;29.08;12.32;;;10.50;75.80;;;;;;4085208;28;20446;-83
2022/05/11 01:56:57;;;;;;;35.20;12.30;;;10.50;75.80;;;;;;4103375;28;20050;-84
2022/05/11 01:58:58;;;;;;;30.42;12.50;;;10.50;75.80;;;;;;4101939;28;20402;-84
2022/05/11 02:00:59;;;;;;;32.83;11.77;;;10.50;75.90;;;;;;4111577;28;20257;-85
2022/05/11 02:03:00;;;;;;;31.23;13.02;;;10.50;76.00;;;;;;4118669;28;20030;-83
2022/05/11 02:09:41;;;;;;;32.05;11.93;;;10.50;76.10;;;;;;4117359;28;20053;-83
2022/05/11 02:11:42;;;;;;;30.60;12.07;;;10.50;76.10;;;;;;4121347;28;20031;-84
2022/05/11 02:13:44;;;;;;;29.65;12.80;;;10.50;76.20;;;;;;4118072;28;20038;-84
2022/05/11 02:15:45;;;;;;;34.85;13.05;;;10.50;76.20;;;;;;4134440;28;20657;-85
2022/05/11 02:17:46;;;;;;;28.65;12.25;;;10.50;76.30;;;;;;4120146;28;20030;-84
2022/05/11 02:19:47;;;;;;;27.70;12.88;;;10.50;76.40;;;;;;4119327;28;20412;-83
2022/05/11 02:21:47;;;;;;;36.10;13.23;;;10.60;76.40;;;;;;4119108;28;20026;-84
2022/05/11 02:23:50;;;;;;;26.98;12.93;;;10.60;76.40;;;;;;4121196;28;20653;-84
2022/05/11 02:25:52;;;;;;;32.80;14.23;;;10.50;76.40;;;;;;4119748;28;20400;-84
2022/05/11 02:27:53;;;;;;;29.02;12.25;;;10.50;76.40;;;;;;4122991;28;20197;-84
2022/05/11 02:29:53;;;;;;;32.03;13.38;;;10.60;76.50;;;;;;4118592;28;20113;-84
2022/05/11 02:31:54;;;;;;;31.20;13.02;;;10.50;76.50;;;;;;4121502;28;20515;-84
2022/05/11 02:33:55;;;;;;;33.75;14.20;;;10.60;76.60;;;;;;4138076;28;20072;-83
2022/05/11 02:35:55;;;;;;;42.63;14.65;;;10.60;76.60;;;;;;4116417;28;20048;-84
2022/05/11 02:37:59;;;;;;;32.70;14.60;;;10.60;76.60;;;;;;4119836;28;20029;-84
2022/05/11 02:40:00;;;;;;;26.88;12.90;;;10.60;76.70;;;;;;4097413;28;20083;-85
2022/05/11 02:42:00;;;;;;;33.03;13.30;;;10.60;76.70;;;;;;4123426;28;20034;-85
2022/05/11 02:44:01;;;;;;;37.03;14.50;;;10.60;76.90;;;;;;4124835;28;20022;-84
2022/05/11 02:46:02;;;;;;;30.27;14.38;;;10.60;76.90;;;;;;4117909;28;20057;-83
2022/05/11 02:48:03;;;;;;;32.42;14.20;;;10.60;77.10;;;;;;4127309;28;20056;-84
2022/05/11 02:50:06;;;;;;;34.92;14.73;;;10.60;77.10;;;;;;4122779;28;20027;-83
2022/05/11 02:52:06;;;;;;;35.72;14.13;;;10.60;77.10;;;;;;4131601;28;20037;-84
2022/05/11 02:54:07;;;;;;;26.02;13.35;;;10.60;77.10;;;;;;4119350;28;20034;-84
2022/05/11 02:56:08;;;;;;;30.55;14.27;;;10.60;77.10;;;;;;4120787;28;20026;-84
2022/05/11 02:58:10;;;;;;;32.80;14.20;;;10.60;77.10;;;;;;4116509;28;20038;-84
2022/05/11 03:00:13;;;;;;;30.90;13.73;;;10.60;77.10;;;;;;4123311;28;20453;-84
2022/05/11 03:02:16;;;;;;;31.40;14.15;;;10.60;77.20;;;;;;4122131;28;20037;-84
2022/05/11 03:04:18;;;;;;;28.35;13.82;;;10.60;77.10;;;;;;4118676;28;20034;-84
2022/05/11 03:06:19;;;;;;;33.50;14.95;;;10.60;77.10;;;;;;4124249;28;20022;-84
2022/05/11 03:08:20;;;;;;;31.10;14.27;;;10.70;77.20;;;;;;4135666;28;20033;-84
2022/05/11 03:10:22;;;;;;;25.52;13.82;;;10.60;77.10;;;;;;4118978;28;20518;-84
2022/05/11 03:12:22;;;;;;;28.38;13.65;;;10.60;77.10;;;;;;4120517;28;20113;-84
2022/05/11 03:14:23;;;;;;;34.22;13.90;;;10.60;77.20;;;;;;4122807;28;20140;-84
2022/05/11 03:16:23;;;;;;;31.90;13.90;;;10.70;77.30;;;;;;4123692;28;20041;-84
2022/05/11 03:18:24;;;;;;;34.78;15.13;;;10.70;77.20;;;;;;4122375;28;20133;-84
2022/05/11 03:20:26;;;;;;;30.75;14.13;;;10.60;77.30;;;;;;4139192;28;20030;-84
2022/05/11 03:22:27;;;;;;;33.15;13.63;;;10.70;77.40;;;;;;4122253;28;20046;-84
2022/05/11 03:24:27;;;;;;;31.70;15.07;;;10.60;77.50;;;;;;4126566;28;20484;-85
2022/05/11 03:26:28;;;;;;;33.42;15.70;;;10.60;77.40;;;;;;4125502;28;20032;-85
2022/05/11 03:28:30;;;;;;;32.30;14.27;;;10.60;77.50;;;;;;4137628;28;20101;-85
2022/05/11 03:30:30;;;;;;;30.70;15.27;;;10.70;77.60;;;;;;4120615;28;20144;-85
2022/05/11 03:34:50;;;;;;;32.83;15.15;;;10.60;77.60;;;;;;4120712;28;20026;-84
2022/05/11 03:36:51;;;;;;;37.85;14.75;;;10.70;78.30;;;;;;4122956;28;20858;-85
2022/05/11 03:38:52;;;;;;;30.58;15.27;;;10.60;77.60;;;;;;4119001;28;20060;-84
2022/05/11 03:40:52;;;;;;;35.15;15.82;;;10.70;77.70;;;;;;4119612;28;20030;-85
2022/05/11 03:42:53;;;;;;;31.83;15.35;;;10.60;77.60;;;;;;4117898;28;20042;-84
2022/05/11 03:44:55;;;;;;;34.67;16.42;;;10.60;77.70;;;;;;4116517;28;20046;-84
2022/05/11 03:46:56;;;;;;;33.65;16.40;;;10.60;77.70;;;;;;4120440;28;20057;-84
2022/05/11 03:48:56;;;;;;;30.08;15.38;;;10.70;77.80;;;;;;4141373;28;20113;-84
2022/05/11 03:50:57;;;;;;;30.98;15.30;;;10.70;77.90;;;;;;4124269;28;20022;-84
2022/05/11 03:52:58;;;;;;;28.98;15.35;;;10.70;78.00;;;;;;4119580;28;20049;-84
2022/05/11 03:54:59;;;;;;;38.33;15.13;;;10.70;78.00;;;;;;4126534;28;20117;-85
2022/05/11 03:56:59;;;;;;;30.23;15.65;;;10.60;78.00;;;;;;4139485;28;20076;-84
2022/05/11 03:59:00;;;;;;;40.75;16.00;;;10.60;78.00;;;;;;4127263;28;20121;-84
2022/05/11 04:01:01;;;;;;;35.65;15.82;;;10.70;78.00;;;;;;4106265;28;20228;-84
2022/05/11 04:03:01;;;;;;;38.92;16.80;;;10.70;78.10;;;;;;4135957;28;20022;-84
2022/05/11 04:05:03;;;;;;;30.42;15.52;;;10.80;78.20;;;;;;4118903;28;20019;-84
2022/05/11 04:07:04;;;;;;;40.25;16.20;;;10.70;78.20;;;;;;4119729;28;20468;-84
2022/05/11 04:09:05;;;;;;;26.83;14.65;;;10.70;78.10;;;;;;4117245;28;20022;-84
2022/05/11 04:11:05;;;;;;;39.20;16.42;;;10.70;78.20;;;;;;4135800;28;20034;-84
2022/05/11 04:13:06;;;;;;;37.17;16.60;;;10.70;78.20;;;;;;4121211;28;20403;-84
2022/05/11 04:15:08;;;;;;;31.73;16.00;;;10.80;78.40;;;;;;4121494;28;20034;-83
2022/05/11 04:17:08;;;;;;;38.05;16.25;;;10.70;78.30;;;;;;4118036;28;20113;-84
2022/05/11 04:19:09;;;;;;;34.85;16.85;;;10.70;79.10;;;;;;4122266;28;20049;-85
2022/05/11 04:21:11;;;;;;;34.75;17.20;;;10.80;78.90;;;;;;4124590;28;20030;-84
2022/05/11 04:23:12;;;;;;;32.53;15.85;;;10.80;78.40;;;;;;4117023;28;20570;-84
2022/05/11 04:25:15;;;;;;;35.85;17.65;;;10.90;78.50;;;;;;4131179;28;20034;-84
2022/05/11 04:27:16;;;;;;;34.08;16.42;;;10.80;78.50;;;;;;4114530;28;20500;-85
2022/05/11 04:29:17;;;;;;;33.15;15.75;;;10.80;78.50;;;;;;4131979;28;20034;-85
2022/05/11 04:31:17;;;;;;;31.05;15.40;;;10.80;78.50;;;;;;4123682;28;20038;-85
2022/05/11 04:33:18;;;;;;;34.17;15.23;;;10.90;78.50;;;;;;4119375;28;20093;-84
2022/05/11 04:35:19;;;;;;;38.10;17.75;;;10.80;78.50;;;;;;4119960;28;20160;-84
2022/05/11 04:37:19;;;;;;;33.45;16.25;;;10.90;79.40;;;;;;4102744;28;20258;-85
2022/05/11 04:39:20;;;;;;;31.67;16.30;;;10.90;78.70;;;;;;4119287;28;20114;-84
2022/05/11 04:41:21;;;;;;;34.63;15.70;;;10.90;78.70;;;;;;4119616;28;20045;-84
2022/05/11 04:43:22;;;;;;;31.70;15.82;;;10.90;78.70;;;;;;4113744;28;20030;-84
2022/05/11 04:45:22;;;;;;;34.50;16.08;;;10.90;78.70;;;;;;4119269;28;20022;-85
2022/05/11 04:47:23;;;;;;;31.33;16.10;;;11.00;78.90;;;;;;4118665;28;20026;-85
2022/05/11 04:49:24;;;;;;;35.80;16.42;;;11.10;78.90;;;;;;4120786;28;20026;-85
2022/05/11 04:51:24;;;;;;;33.60;16.30;;;11.00;78.80;;;;;;4115553;28;20061;-85
2022/05/11 04:53:25;;;;;;;32.85;15.48;;;11.00;78.90;;;;;;4117107;28;20030;-86
2022/05/11 04:55:26;;;;;;;37.72;16.35;;;11.10;79.00;;;;;;4130639;28;20280;-85
2022/05/11 04:57:26;;;;;;;30.05;15.18;;;11.20;79.00;;;;;;4118311;28;20603;-84
2022/05/11 04:59:27;;;;;;;33.50;15.73;;;11.10;79.00;;;;;;4133354;28;20038;-84
2022/05/11 05:01:28;;;;;;;35.00;15.50;;;11.10;79.10;;;;;;4115177;28;20038;-85
2022/05/11 05:03:28;;;;;;;34.85;16.00;;;11.20;79.10;;;;;;4114139;28;20034;-88
2022/05/11 05:05:29;;;;;;;30.75;15.80;;;11.20;79.10;;;;;;4120056;28;20138;-85
2022/05/11 05:07:30;;;;;;;32.92;16.48;;;11.20;79.10;;;;;;4125786;28;20049;-90
2022/05/11 05:09:31;;;;;;;32.25;16.48;;;11.20;79.20;;;;;;4142409;28;20026;-89
2022/05/11 05:11:32;;;;;;;33.25;16.13;;;11.30;79.40;;;;;;4127567;28;20035;-90
2022/05/11 05:13:33;;;;;;;37.38;16.45;;;11.30;79.30;;;;;;4129443;28;20113;-89
2022/05/11 05:15:36;;;;;;;28.52;16.02;;;11.30;79.30;;;;;;4109918;28;20516;-90
2022/05/11 05:17:37;;;;;;;;;;;11.40;79.30;;;;;;4145202;28;20786;-89
2022/05/11 05:19:40;;;;;;;30.52;14.63;;;11.40;80.00;;;;;;4125217;28;19945;-90
2022/05/11 05:21:41;;;;;;;31.92;15.68;;;11.50;79.10;;;;;;4123759;28;20478;-90
2022/05/11 05:23:42;;;;;;;32.92;15.82;;;11.50;79.20;;;;;;4126649;28;20031;-89
2022/05/11 05:25:42;;;;;;;32.40;16.77;;;11.50;79.20;;;;;;4128127;28;20072;-89
2022/05/11 05:27:44;;;;;;;32.70;16.58;;;11.60;79.30;;;;;;4121538;28;20400;-89
2022/05/11 05:32:05;;;;;;;38.63;18.00;;;11.60;79.40;;;;;;4129630;28;20349;-89
2022/05/11 05:34:06;;;;;;;33.20;16.65;;;11.60;79.40;;;;;;4128432;28;20507;-89
2022/05/11 05:36:08;;;;;;;31.58;16.73;;;11.70;79.50;;;;;;4109696;28;20060;-89
2022/05/11 05:38:08;;;;;;;32.92;16.38;;;11.70;79.70;;;;;;4122667;28;20586;-89
2022/05/11 05:40:10;;;;;;;35.00;16.30;;;11.80;79.80;;;;;;4142025;28;20033;-90
2022/05/11 05:42:25;;;;;;;38.25;16.67;;;11.80;79.90;;;;;;4125252;28;20018;-89
2022/05/11 05:44:29;;;;;;;28.73;15.88;;;11.80;79.80;;;;;;4126792;28;20487;-91
2022/05/11 05:46:30;;;;;;;31.42;15.38;;;11.80;79.60;;;;;;4139326;28;20504;-90
2022/05/11 05:48:31;;;;;;;30.73;15.73;;;11.90;79.70;;;;;;4140772;28;20064;-89
2022/05/11 05:50:32;;;;;;;30.58;15.93;;;11.90;79.80;;;;;;4127619;28;20066;-90
2022/05/11 05:52:33;;;;;;;31.58;15.77;;;12.00;80.00;;;;;;4123665;28;20100;-89
2022/05/11 05:54:38;;;;;;;28.25;15.27;;;12.00;80.20;;;;;;4126781;28;20056;-89
2022/05/11 05:56:39;;;;;;;32.22;14.38;;;12.10;80.40;;;;;;4120902;28;20046;-90
2022/05/11 05:58:42;;;;;;;34.55;16.08;;;12.20;80.70;;;;;;4125360;28;20026;-89
2022/05/11 06:00:43;;;;;;;31.05;14.63;;;12.20;81.00;;;;;;4125086;28;20038;-89
2022/05/11 06:02:44;;;;;;;32.47;14.98;;;12.30;80.90;;;;;;4140446;28;20069;-88
2022/05/11 06:04:50;;;;;;;28.15;13.95;;;12.40;81.00;;;;;;4142693;28;20058;-89
2022/05/11 06:06:51;;;;;;;32.53;15.25;;;12.50;81.30;;;;;;4142241;28;20023;-88
2022/05/11 06:08:52;;;;;;;28.92;13.77;;;12.60;80.70;;;;;;4142650;28;20023;-91
2022/05/11 06:10:55;;;;;;;26.20;13.80;;;12.60;80.50;;;;;;4144019;28;20113;-89
2022/05/11 06:12:56;;;;;;;30.55;13.48;;;12.70;81.10;;;;;;4144566;28;20068;-89
2022/05/11 06:14:58;;;;;;;27.27;13.63;;;12.80;80.10;;;;;;4142578;28;20049;-89
2022/05/11 06:16:59;;;;;;;30.92;13.80;;;12.90;80.00;;;;;;4158674;28;20037;-89
2022/05/11 06:19:00;;;;;;;33.08;14.05;;;12.90;79.60;;;;;;4130334;28;20141;-88
2022/05/11 06:21:01;;;;;;;31.55;13.73;;;12.90;79.30;;;;;;4141410;28;20160;-90
2022/05/11 06:23:05;;;;;;;25.25;13.13;;;13.00;79.00;;;;;;4148402;28;20065;-89
2022/05/11 06:25:06;;;;;;;25.73;12.98;;;13.00;78.70;;;;;;4115748;28;20034;-88
2022/05/11 06:27:17;;;;;;;25.20;12.27;;;13.10;78.50;;;;;;4126114;28;20057;-89
2022/05/11 06:29:18;;;;;;;25.52;12.98;;;13.10;78.30;;;;;;4128253;28;20026;-89
2022/05/11 06:31:19;;;;;;;26.42;12.15;;;13.10;78.20;;;;;;4139529;28;20026;-90
2022/05/11 06:33:20;;;;;;;29.17;12.25;;;13.20;78.20;;;;;;4126157;28;20035;-89
2022/05/11 06:35:21;;;;;;;20.75;11.38;;;13.30;78.20;;;;;;4125403;28;20602;-88
2022/05/11 06:37:24;;;;;;;27.83;11.80;;;13.20;78.00;;;;;;4127544;28;20027;-89
2022/05/11 06:39:25;;;;;;;21.02;11.32;;;13.40;78.00;;;;;;4126295;28;20058;-88
2022/05/11 06:41:28;;;;;;;23.63;11.95;;;13.40;77.80;;;;;;4125161;28;20093;-89
2022/05/11 06:43:28;;;;;;;26.10;11.80;;;13.50;77.80;;;;;;4139118;28;20353;-90
2022/05/11 06:45:30;;;;;;;20.17;10.75;;;13.50;77.60;;;;;;4143565;28;20030;-90
2022/05/11 06:47:32;;;;;;;25.20;11.77;;;13.60;77.40;;;;;;4129338;28;20034;-89
2022/05/11 06:49:34;;;;;;;20.63;10.48;;;13.70;77.20;;;;;;4145764;28;20028;-89
2022/05/11 06:51:35;;;;;;;23.40;10.57;;;13.70;77.00;;;;;;4133855;28;20058;-88
2022/05/11 07:00:37;;;;;;;21.02;10.77;;;13.90;75.60;;;;;;4124355;28;20037;-89
2022/05/11 07:02:39;;;;;;;17.60;9.23;;;14.00;75.40;;;;;;4107755;28;20023;-89
2022/05/11 07:04:40;;;;;;;20.15;10.52;;;14.00;75.30;;;;;;4121477;28;20051;-89
2022/05/11 07:06:41;;;;;;;22.92;10.40;;;14.10;75.90;;;;;;4138025;28;20569;-90
2022/05/11 07:08:44;;;;;;;16.45;9.85;;;14.10;74.90;;;;;;4132899;28;20027;-88
2022/05/11 07:12:17;;;;;;;18.23;9.90;;;14.20;74.80;;;;;;4129531;28;20057;-89
2022/05/11 07:13:06;;;;;;;20.17;10.02;;;14.20;74.70;;;;;;4122287;28;20451;-89
2022/05/11 07:15:08;;;;;;;18.00;9.88;;;14.30;74.30;;;;;;4126588;28;20035;-89
2022/05/11 07:17:09;;;;;;;19.52;9.48;;;14.40;73.90;;;;;;4128616;28;20035;-88
2022/05/11 07:19:09;;;;;;;19.15;9.68;;;14.40;73.70;;;;;;4130029;28;20034;-89
2022/05/11 07:21:10;;;;;;;20.90;9.10;;;14.50;73.70;;;;;;4127585;28;20563;-89
2022/05/11 07:23:12;;;;;;;18.75;9.13;;;14.50;73.50;;;;;;4123388;28;20392;-89
2022/05/11 07:25:16;;;;;;;17.33;8.93;;;14.60;73.50;;;;;;4120384;28;20030;-89
2022/05/11 07:27:18;;;;;;;16.02;8.80;;;14.70;73.50;;;;;;4125771;28;20065;-90
2022/05/11 07:29:19;;;;;;;18.65;8.38;;;14.70;73.60;;;;;;4129426;28;20049;-89
2022/05/11 07:31:19;;;;;;;19.73;9.35;;;14.80;73.70;;;;;;4125935;28;20018;-89
2022/05/11 07:33:21;;;;;;;13.95;7.25;;;14.80;73.60;;;;;;4123391;28;20026;-90
2022/05/11 07:35:21;;;;;;;21.52;10.10;;;14.90;73.40;;;;;;4127551;28;20030;-91
2022/05/11 07:37:22;;;;;;;19.98;9.45;;;15.00;73.70;;;;;;4140412;28;20124;-89
2022/05/11 07:39:24;;;;;;;18.67;9.43;;;15.10;72.80;;;;;;4124440;28;20467;-89
2022/05/11 07:41:25;;;;;;;19.23;8.55;;;15.20;72.20;;;;;;4128064;28;20038;-89
2022/05/11 07:43:25;;;;;;;16.27;9.15;;;15.20;72.00;;;;;;4149932;28;20025;-89
2022/05/11 07:45:26;;;;;;;18.23;8.77;;;15.30;71.80;;;;;;4140685;28;20033;-90
2022/05/11 07:47:27;;;;;;;16.95;9.10;;;15.30;71.80;;;;;;4125625;28;20060;-89
2022/05/11 07:49:28;;;;;;;20.58;8.27;;;15.40;71.60;;;;;;4126898;28;20562;-89
2022/05/11 07:51:29;;;;;;;23.20;9.23;;;15.40;71.60;;;;;;4134677;28;20065;-86
2022/05/11 07:53:31;;;;;;;20.75;9.00;;;15.50;71.50;;;;;;4120707;28;20052;-89
2022/05/11 07:55:33;;;;;;;23.58;9.40;;;15.50;71.00;;;;;;4123968;28;20522;-91
2022/05/11 07:59:56;;;;;;;14.05;7.90;;;15.60;70.50;;;;;;4124498;28;20377;-88
2022/05/11 08:01:57;;;;;;;14.98;7.53;;;15.70;70.20;;;;;;4124764;28;20501;-89
2022/05/11 08:03:57;;;;;;;21.05;8.32;;;15.70;69.90;;;;;;4146767;28;20028;-89
2022/05/11 08:06:00;;;;;;;16.23;8.93;;;15.80;69.90;;;;;;4136380;28;20030;-89
2022/05/11 08:08:05;;;;;;;16.25;8.70;;;15.80;70.20;;;;;;4135989;28;20053;-89
2022/05/11 08:10:07;;;;;;;13.20;7.32;;;15.80;69.10;;;;;;4134888;28;20042;-89
2022/05/11 08:12:09;;;;;;;17.42;8.02;;;15.90;68.80;;;;;;4136251;28;20169;-89
2022/05/11 08:14:10;;;;;;;15.38;7.68;;;15.90;68.50;;;;;;4135861;28;20029;-89
2022/05/11 08:16:10;;;;;;;16.08;7.50;;;16.00;68.50;;;;;;4126492;28;20117;-89
2022/05/11 08:18:13;;;;;;;15.15;8.05;;;16.00;68.40;;;;;;4126412;28;20556;-89
2022/05/11 08:20:19;;;;;;;17.00;7.53;;;16.10;68.30;;;;;;4125798;28;20508;-88
2022/05/11 08:22:20;;;;;;;15.77;8.05;;;16.10;68.20;;;;;;4136383;28;20046;-89
2022/05/11 08:24:22;;;;;;;12.95;7.22;;;16.20;68.10;;;;;;4135588;28;20037;-89
2022/05/11 08:26:23;;;;;;;17.55;8.20;;;16.20;67.90;;;;;;4123776;28;20035;-89
2022/05/11 08:28:25;;;;;;;16.20;7.55;;;16.30;67.80;;;;;;4147212;28;20098;-89
2022/05/11 08:35:08;;;;;;;15.15;7.88;;;16.40;66.90;;;;;;4146044;28;20033;-90
2022/05/11 08:37:09;;;;;;;11.02;6.40;;;16.40;66.30;;;;;;4130775;28;20428;-89
2022/05/11 08:39:13;;;;;;;15.50;6.85;;;16.50;66.30;;;;;;4117337;28;20050;-90
2022/05/11 08:41:28;;;;;;;13.15;6.65;;;16.40;66.30;;;;;;4133910;28;20046;-88
2022/05/11 08:43:34;;;;;;;17.15;7.43;;;16.50;66.40;;;;;;4134264;28;20038;-89
2022/05/11 08:46:05;;;;;;;16.95;7.20;;;16.60;66.40;;;;;;4127597;28;20022;-91
2022/05/11 08:48:15;;;;;;;17.08;6.60;;;16.70;65.90;;;;;;4133892;28;20137;-92
2022/05/11 08:50:19;;;;;;;13.77;6.50;;;16.70;66.00;;;;;;4147818;28;20025;-89
2022/05/11 08:52:47;;;;;;;13.77;7.32;;;16.70;65.90;;;;;;4128193;28;20022;-90
2022/05/11 08:54:54;;;;;;;16.50;6.70;;;16.80;65.20;;;;;;4126441;28;20109;-89
2022/05/11 08:56:55;;;;;;;16.88;7.05;;;16.90;65.40;;;;;;4124190;28;20034;-90
2022/05/11 08:58:57;;;;;;;14.57;6.88;;;16.90;65.50;;;;;;4129188;28;20030;-90
2022/05/11 09:00:59;;;;;;;11.35;6.60;;;17.00;66.10;;;;;;4135068;28;20030;-89
2022/05/11 09:03:39;;;;;;;15.48;6.53;;;17.10;65.20;;;;;;4123899;28;20074;-89
2022/05/11 09:05:40;;;;;;;15.95;6.57;;;17.20;64.60;;;;;;4111831;28;20031;-88
2022/05/11 09:07:44;;;;;;;12.80;6.13;;;17.30;64.50;;;;;;4096074;28;20031;-89
2022/05/11 09:09:45;;;;;;;11.32;5.70;;;17.40;64.40;;;;;;4107303;28;20110;-89
2022/05/11 09:11:52;;;;;;;15.02;6.97;;;17.50;63.90;;;;;;4109714;28;20039;-90
2022/05/11 09:13:56;;;;;;;13.35;5.78;;;17.60;62.40;;;;;;4108024;28;20109;-89
2022/05/11 09:16:00;;;;;;;13.32;5.47;;;17.60;60.80;;;;;;4107765;28;20051;-89
2022/05/11 09:18:05;;;;;;;14.80;5.05;;;17.70;60.70;;;;;;4113386;28;20461;-89
2022/05/11 09:20:10;;;;;;;11.88;5.82;;;17.70;60.30;;;;;;4109554;28;20054;-90
2022/05/11 09:22:17;;;;;;;22.08;5.75;;;17.70;59.70;;;;;;4113861;28;20820;-89
2022/05/11 09:24:17;;;;;;;13.70;6.22;;;17.80;59.70;;;;;;4107594;28;20038;-90
2022/05/11 09:26:32;;;;;;;11.45;5.85;;;17.80;59.60;;;;;;4112968;28;20027;-90
2022/05/11 09:28:36;;;;;;;15.18;5.72;;;17.80;60.00;;;;;;4105437;28;20023;-89
2022/05/11 09:30:38;;;;;;;13.88;6.18;;;17.90;59.80;;;;;;4091573;29;20039;-89
2022/05/11 09:32:44;;;;;;;16.25;6.18;;;17.90;59.30;;;;;;4108659;28;20117;-90
2022/05/11 09:34:45;;;;;;;9.93;4.97;;;17.90;58.70;;;;;;4107273;28;20031;-89
2022/05/11 09:36:56;;;;;;;14.45;5.43;;;17.90;58.50;;;;;;4110416;28;20045;-90
2022/05/11 09:39:12;;;;;;;16.95;5.32;;;17.90;58.30;;;;;;4105708;28;20049;-89
2022/05/11 09:41:28;;;;;;;15.55;4.93;;;17.90;57.80;;;;;;4106305;28;20039;-89
2022/05/11 09:43:33;;;;;;;12.40;5.07;;;17.90;58.00;;;;;;4122953;28;20459;-89
2022/05/11 09:45:38;;;;;;;14.43;5.25;;;17.90;57.60;;;;;;4123933;28;20137;-88
2022/05/11 09:48:02;;;;;;;10.80;4.07;;;17.90;57.50;;;;;;4128077;28;20031;-88
2022/05/11 09:50:22;;;;;;;12.57;4.15;;;17.90;57.90;;;;;;4120363;28;20027;-89
2022/05/11 09:52:34;;;;;;;15.98;5.13;;;17.80;56.40;;;;;;4119875;28;20042;-89
2022/05/11 09:54:51;;;;;;;17.23;5.90;;;17.80;55.80;;;;;;4120146;28;20570;-89
2022/05/11 09:56:58;;;;;;;15.00;5.45;;;17.80;56.00;;;;;;4121253;28;20022;-88
2022/05/11 09:59:52;;;;;;;12.18;4.68;;;17.80;56.60;;;;;;4132064;28;20040;-89
2022/05/11 10:02:19;;;;;;;11.48;4.60;;;17.80;56.70;;;;;;4122737;28;20224;-89
2022/05/11 10:04:28;;;;;;;12.55;4.22;;;17.80;57.20;;;;;;4119269;28;20066;-89
2022/05/11 10:06:34;;;;;;;11.07;4.85;;;17.80;57.50;;;;;;4124366;28;20049;-88
2022/05/11 10:08:38;;;;;;;11.18;4.10;;;17.90;57.80;;;;;;4124089;28;20121;-88
2022/05/11 10:10:50;;;;;;;;;;;17.90;57.60;;;;;;4125122;28;20077;-87
2022/05/11 10:12:54;;;;;;;15.65;4.65;;;18.00;55.90;;;;;;4122941;28;19965;-88
2022/05/11 10:22:30;;;;;;;15.07;4.22;;;18.10;56.20;;;;;;4120999;28;20069;-89
2022/05/11 10:24:45;;;;;;;11.38;4.22;;;18.20;55.20;;;;;;4121085;28;20062;-89
2022/05/11 10:27:20;;;;;;;8.60;3.63;;;18.20;55.40;;;;;;4137036;28;20041;-89
2022/05/11 10:29:53;;;;;;;12.93;3.30;;;18.30;54.80;;;;;;4121106;28;20049;-90
2022/05/11 10:32:09;;;;;;;14.63;3.78;;;18.40;55.30;;;;;;4105625;28;20086;-89
2022/05/11 10:34:40;;;;;;;12.23;3.40;;;18.50;55.40;;;;;;4124279;28;20086;-89
2022/05/11 10:36:57;;;;;;;11.07;3.20;;;18.60;55.60;;;;;;4119887;28;20073;-88
2022/05/11 10:39:14;;;;;;;7.53;2.65;;;18.70;54.30;;;;;;4122408;28;20084;-90
2022/05/11 10:41:38;;;;;;;14.90;3.15;;;18.70;52.20;;;;;;4115176;28;20860;-88
2022/05/11 10:44:04;;;;;;;8.23;2.90;;;18.80;52.20;;;;;;4134781;28;20085;-88
2022/05/11 10:46:12;;;;;;;10.02;2.70;;;18.90;51.40;;;;;;4108637;28;20023;-89
2022/05/11 10:48:19;;;;;;;11.65;3.03;;;19.00;51.80;;;;;;4122115;28;20034;-89
2022/05/11 10:50:35;;;;;;;9.10;2.15;;;19.00;51.80;;;;;;4121389;28;20026;-89
2022/05/11 10:53:14;;;;;;;9.63;2.75;;;19.10;51.50;;;;;;4118942;28;20479;-88
2022/05/11 10:55:17;;;;;;;14.38;2.83;;;19.10;50.60;;;;;;4137717;28;20930;-91
2022/05/11 10:57:44;;;;;;;14.60;3.15;;;19.20;50.60;;;;;;4122634;28;20034;-89
2022/05/11 10:59:48;;;;;;;10.65;2.90;;;19.20;49.60;;;;;;4123688;28;20038;-91
2022/05/11 11:02:20;;;;;;;7.72;2.50;;;19.20;50.60;;;;;;4134510;28;20369;-88
2022/05/11 11:04:43;;;;;;;10.68;2.50;;;19.20;49.70;;;;;;4140002;28;20534;-87